createdAt,value
2017-07-11T00:01:05.870Z,83.85
2017-07-11T00:03:07.357Z,84.43
2017-07-11T00:05:08.915Z,84.48
2017-07-11T00:07:10.439Z,84.87
2017-07-11T00:09:11.936Z,85.06
2017-07-11T00:11:13.444Z,85.25
2017-07-11T00:13:14.914Z,84.33
2017-07-11T00:15:16.400Z,84.14
2017-07-11T00:17:17.900Z,84.29
2017-07-11T00:19:19.403Z,84.43
2017-07-11T00:21:20.929Z,84.23
2017-07-11T00:23:22.447Z,83.47
2017-07-11T00:25:24.026Z,83.47
2017-07-11T00:27:25.460Z,84.43
2017-07-11T00:29:26.941Z,84.53
2017-07-11T00:31:28.451Z,84.14
2017-07-11T00:33:29.956Z,84.48
2017-07-11T00:35:31.459Z,84.58
2017-07-11T00:37:32.953Z,84.14
2017-07-11T00:39:34.451Z,83.52
2017-07-11T00:41:35.977Z,84.10
2017-07-11T00:43:37.443Z,84.05
2017-07-11T00:45:38.976Z,83.28
2017-07-11T00:47:40.475Z,83.18
2017-07-11T00:49:41.961Z,83.75
2017-07-11T00:51:43.437Z,84.58
2017-07-11T00:53:44.941Z,84.29
2017-07-11T00:55:46.452Z,84.29
2017-07-11T00:57:47.945Z,84.58
2017-07-11T00:59:49.460Z,84.39
2017-07-11T01:01:50.946Z,84.29
2017-07-11T01:03:52.418Z,83.75
2017-07-11T01:05:53.904Z,83.18
2017-07-11T01:07:55.422Z,82.98
2017-07-11T01:09:56.909Z,82.89
2017-07-11T01:11:58.379Z,82.60
2017-07-11T01:13:59.890Z,82.79
2017-07-11T01:16:01.371Z,82.21
2017-07-11T01:18:02.847Z,82.60
2017-07-11T01:20:04.371Z,82.31
2017-07-11T01:22:05.888Z,82.50
2017-07-11T01:24:07.347Z,82.50
2017-07-11T01:26:08.833Z,81.93
2017-07-11T01:28:10.331Z,82.41
2017-07-11T01:30:11.841Z,82.79
2017-07-11T01:32:13.326Z,82.98
2017-07-11T01:34:14.822Z,83.18
2017-07-11T01:36:16.300Z,83.33
2017-07-11T01:38:17.880Z,83.28
2017-07-11T01:40:19.318Z,83.91
2017-07-11T01:42:20.797Z,84.19
2017-07-11T01:44:22.308Z,84.48
2017-07-11T01:46:23.839Z,84.29
2017-07-11T01:48:25.394Z,85.06
2017-07-11T01:50:26.858Z,85.06
2017-07-11T01:52:28.380Z,84.67
2017-07-11T01:54:29.852Z,84.97
2017-07-11T01:56:31.390Z,84.97
2017-07-11T01:58:32.906Z,84.77
2017-07-11T02:00:34.405Z,84.19
2017-07-11T02:02:35.939Z,85.16
2017-07-11T02:04:37.419Z,84.58
2017-07-11T02:06:38.918Z,84.97
2017-07-11T02:08:40.424Z,84.67
2017-07-11T02:10:41.923Z,85.35
2017-07-11T02:12:43.443Z,84.39
2017-07-11T02:14:44.912Z,83.91
2017-07-11T02:16:46.433Z,84.29
2017-07-11T02:18:47.951Z,84.19
2017-07-11T02:20:49.505Z,84.19
2017-07-11T02:22:50.992Z,84.19
2017-07-11T02:24:52.452Z,83.91
2017-07-11T02:26:53.997Z,83.52
2017-07-11T02:28:55.492Z,82.94
2017-07-11T02:30:56.968Z,83.14
2017-07-11T02:32:58.507Z,82.65
2017-07-11T02:34:59.992Z,82.75
2017-07-11T02:37:01.494Z,82.41
2017-07-11T02:39:03.008Z,82.31
2017-07-11T02:41:04.511Z,81.73
2017-07-11T02:43:06.007Z,81.98
2017-07-11T02:45:07.464Z,81.93
2017-07-11T02:47:08.922Z,81.54
2017-07-11T02:49:10.439Z,81.60
2017-07-11T02:51:12.032Z,82.27
2017-07-11T02:53:13.562Z,81.98
2017-07-11T02:55:15.095Z,82.56
2017-07-11T02:57:16.605Z,82.61
2017-07-11T02:59:18.088Z,83.00
2017-07-11T03:01:19.594Z,83.23
2017-07-11T03:03:21.083Z,82.52
2017-07-11T03:05:22.582Z,82.23
2017-07-11T03:07:24.024Z,82.52
2017-07-11T03:09:25.479Z,83.00
2017-07-11T03:11:26.962Z,82.85
2017-07-11T03:13:28.463Z,83.00
2017-07-11T03:15:29.931Z,83.00
2017-07-11T03:17:31.419Z,83.58
2017-07-11T03:19:32.937Z,84.44
2017-07-11T03:21:34.397Z,84.11
2017-07-11T03:23:35.915Z,84.50
2017-07-11T03:25:37.471Z,84.30
2017-07-11T03:27:38.976Z,84.98
2017-07-11T03:29:40.487Z,85.89
2017-07-11T03:31:42.001Z,85.80
2017-07-11T03:33:43.507Z,86.18
2017-07-11T03:35:45.004Z,85.22
2017-07-11T03:37:46.486Z,85.22
2017-07-11T03:39:47.919Z,86.09
2017-07-11T03:41:49.349Z,85.41
2017-07-11T03:43:50.791Z,84.55
2017-07-11T03:45:52.237Z,84.64
2017-07-11T03:47:53.684Z,85.32
2017-07-11T03:49:55.199Z,84.45
2017-07-11T03:51:56.703Z,85.22
2017-07-11T03:53:58.212Z,84.60
2017-07-11T03:55:59.749Z,84.41
2017-07-11T03:58:01.285Z,84.22
2017-07-11T04:00:03.197Z,84.80
2017-07-11T04:02:05.045Z,84.80
2017-07-11T04:04:06.798Z,84.03
2017-07-11T04:06:08.413Z,84.51
2017-07-11T04:08:09.939Z,83.64
2017-07-11T04:10:11.573Z,83.54
2017-07-11T04:12:13.359Z,84.03
2017-07-11T04:14:15.037Z,84.80
2017-07-11T04:16:16.952Z,85.33
2017-07-11T04:18:18.820Z,84.70
2017-07-11T04:20:20.518Z,85.37
2017-07-11T04:22:22.086Z,84.37
2017-07-11T04:24:23.561Z,84.51
2017-07-11T04:26:25.042Z,84.85
2017-07-11T04:28:26.522Z,84.89
2017-07-11T04:30:28.055Z,84.12
2017-07-11T04:32:29.508Z,83.74
2017-07-11T04:34:31.001Z,84.03
2017-07-11T04:36:32.553Z,84.12
2017-07-11T04:38:34.027Z,84.03
2017-07-11T04:40:35.565Z,84.03
2017-07-11T04:42:37.468Z,84.31
2017-07-11T04:44:39.115Z,84.26
2017-07-11T04:46:40.607Z,84.22
2017-07-11T04:48:42.112Z,83.20
2017-07-11T04:50:43.629Z,83.84
2017-07-11T04:52:45.108Z,83.69
2017-07-11T04:54:46.602Z,83.20
2017-07-11T04:56:48.086Z,82.43
2017-07-11T04:58:49.608Z,83.07
2017-07-11T05:00:51.097Z,83.45
2017-07-11T05:02:52.572Z,83.64
2017-07-11T05:04:54.071Z,84.22
2017-07-11T05:06:55.841Z,83.54
2017-07-11T05:08:57.658Z,84.22
2017-07-11T05:10:59.520Z,83.69
2017-07-11T05:13:01.102Z,82.73
2017-07-11T05:15:02.607Z,82.24
2017-07-11T05:17:04.084Z,82.15
2017-07-11T05:19:05.594Z,82.49
2017-07-11T05:21:07.081Z,82.68
2017-07-11T05:23:08.606Z,82.43
2017-07-11T05:25:10.054Z,82.63
2017-07-11T05:27:11.581Z,81.96
2017-07-11T05:29:13.089Z,82.05
2017-07-11T05:31:14.608Z,81.67
2017-07-11T05:33:16.112Z,81.67
2017-07-11T05:35:17.580Z,82.24
2017-07-11T05:37:19.081Z,81.92
2017-07-11T05:39:20.587Z,81.96
2017-07-11T05:41:22.092Z,82.10
2017-07-11T05:43:23.595Z,82.68
2017-07-11T05:45:25.173Z,82.68
2017-07-11T05:47:26.683Z,83.12
2017-07-11T05:49:28.095Z,83.89
2017-07-11T05:51:29.527Z,84.27
2017-07-11T05:53:30.971Z,84.08
2017-07-11T05:55:32.409Z,84.37
2017-07-11T05:57:33.832Z,84.47
2017-07-11T05:59:35.272Z,83.16
2017-07-11T06:01:36.798Z,82.87
2017-07-11T06:03:38.231Z,82.68
2017-07-11T06:05:39.661Z,82.93
2017-07-11T06:07:41.096Z,83.60
2017-07-11T06:09:42.515Z,83.26
2017-07-11T06:11:43.938Z,82.78
2017-07-11T06:13:45.364Z,82.20
2017-07-11T06:15:46.790Z,82.59
2017-07-11T06:17:48.217Z,82.68
2017-07-11T06:19:49.646Z,82.87
2017-07-11T06:21:51.073Z,83.07
2017-07-11T06:23:52.498Z,82.97
2017-07-11T06:25:53.926Z,82.97
2017-07-11T06:27:55.370Z,82.87
2017-07-11T06:29:56.792Z,82.87
2017-07-11T06:31:58.225Z,83.07
2017-07-11T06:33:59.657Z,83.26
2017-07-11T06:36:01.083Z,82.40
2017-07-11T06:38:02.513Z,83.16
2017-07-11T06:40:03.942Z,82.59
2017-07-11T06:42:05.367Z,82.78
2017-07-11T06:44:06.795Z,82.78
2017-07-11T06:46:08.225Z,82.87
2017-07-11T06:48:09.663Z,82.49
2017-07-11T06:50:11.082Z,82.97
2017-07-11T06:52:12.514Z,82.87
2017-07-11T06:54:13.942Z,82.53
2017-07-11T06:56:15.373Z,82.78
2017-07-11T06:58:16.810Z,82.10
2017-07-11T07:00:18.220Z,82.49
2017-07-11T07:02:19.660Z,82.63
2017-07-11T07:04:21.087Z,82.97
2017-07-11T07:06:22.516Z,82.87
2017-07-11T07:08:24.007Z,83.30
2017-07-11T07:10:25.565Z,82.82
2017-07-11T07:12:27.014Z,82.87
2017-07-11T07:14:28.507Z,83.78
2017-07-11T07:16:29.977Z,83.20
2017-07-11T07:18:31.473Z,82.24
2017-07-11T07:20:32.967Z,81.71
2017-07-11T07:22:34.431Z,81.57
2017-07-11T07:24:35.893Z,82.53
2017-07-11T07:26:37.439Z,82.43
2017-07-11T07:28:38.914Z,82.43
2017-07-11T07:30:40.429Z,83.20
2017-07-11T07:32:41.925Z,83.49
2017-07-11T07:34:43.440Z,84.07
2017-07-11T07:36:44.854Z,83.97
2017-07-11T07:38:46.399Z,83.74
2017-07-11T07:40:47.905Z,84.51
2017-07-11T07:42:49.391Z,84.07
2017-07-11T07:44:51.218Z,83.45
2017-07-11T07:46:52.804Z,84.36
2017-07-11T07:48:54.303Z,84.89
2017-07-11T07:50:55.778Z,84.51
2017-07-11T07:52:57.247Z,84.41
2017-07-11T07:54:58.745Z,84.41
2017-07-11T07:57:00.214Z,84.22
2017-07-11T07:59:01.745Z,84.22
2017-07-11T08:01:03.264Z,84.51
2017-07-11T08:03:04.722Z,84.51
2017-07-11T08:05:06.207Z,85.08
2017-07-11T08:07:07.710Z,84.07
2017-07-11T08:09:09.185Z,83.84
2017-07-11T08:11:10.698Z,84.74
2017-07-11T08:13:12.153Z,84.45
2017-07-11T08:15:13.671Z,83.40
2017-07-11T08:17:15.199Z,83.69
2017-07-11T08:19:16.687Z,84.26
2017-07-11T08:21:18.180Z,82.92
2017-07-11T08:23:19.689Z,83.40
2017-07-11T08:25:21.172Z,83.78
2017-07-11T08:27:22.687Z,83.44
2017-07-11T08:29:24.281Z,83.69
2017-07-11T08:31:25.974Z,83.15
2017-07-11T08:33:27.709Z,82.67
2017-07-11T08:35:29.446Z,82.29
2017-07-11T08:37:31.325Z,82.76
2017-07-11T08:39:33.210Z,82.92
2017-07-11T08:41:34.957Z,83.40
2017-07-11T08:43:36.450Z,82.63
2017-07-11T08:45:38.078Z,82.29
2017-07-11T08:47:39.553Z,82.29
2017-07-11T08:49:41.089Z,81.81
2017-07-11T08:51:42.612Z,82.73
2017-07-11T08:53:44.127Z,82.82
2017-07-11T08:55:45.604Z,83.06
2017-07-11T08:57:47.092Z,82.57
2017-07-11T08:59:48.632Z,82.38
2017-07-11T09:01:50.098Z,82.38
2017-07-11T09:03:51.624Z,81.90
2017-07-11T09:05:53.092Z,82.76
2017-07-11T09:07:54.595Z,81.99
2017-07-11T09:09:56.314Z,81.61
2017-07-11T09:11:57.897Z,82.86
2017-07-11T09:13:59.412Z,82.76
2017-07-11T09:16:00.960Z,83.25
2017-07-11T09:18:02.447Z,82.67
2017-07-11T09:20:03.877Z,82.48
2017-07-11T09:22:05.301Z,83.06
2017-07-11T09:24:06.733Z,83.63
2017-07-11T09:26:08.159Z,84.44
2017-07-11T09:28:09.590Z,82.61
2017-07-11T09:30:11.018Z,84.06
2017-07-11T09:32:12.443Z,83.77
2017-07-11T09:34:13.869Z,83.48
2017-07-11T09:36:15.300Z,82.52
2017-07-11T09:38:16.728Z,81.84
2017-07-11T09:40:18.155Z,81.56
2017-07-11T09:42:19.584Z,82.04
2017-07-11T09:44:21.018Z,82.32
2017-07-11T09:46:22.437Z,82.32
2017-07-11T09:48:23.868Z,82.61
2017-07-11T09:50:25.295Z,82.32
2017-07-11T09:52:26.729Z,83.09
2017-07-11T09:54:28.159Z,83.67
2017-07-11T09:56:29.610Z,82.94
2017-07-11T09:58:31.254Z,83.47
2017-07-11T10:00:32.800Z,81.63
2017-07-11T10:02:34.344Z,81.68
2017-07-11T10:04:36.134Z,78.98
2017-07-11T10:06:37.761Z,81.24
2017-07-11T10:08:39.243Z,76.26
2017-07-11T10:10:40.772Z,75.97
2017-07-11T10:12:42.220Z,75.55
2017-07-11T10:14:43.654Z,76.23
2017-07-11T10:16:45.101Z,77.71
2017-07-11T10:18:46.578Z,76.40
2017-07-11T10:20:47.996Z,72.77
2017-07-11T10:22:49.432Z,72.19
2017-07-11T10:24:50.867Z,72.28
2017-07-11T10:26:52.307Z,70.54
2017-07-11T10:28:53.736Z,71.55
2017-07-11T10:30:55.156Z,70.10
2017-07-11T10:32:56.604Z,68.17
2017-07-11T10:34:58.030Z,68.20
2017-07-11T10:36:59.471Z,68.98
2017-07-11T10:39:00.900Z,68.82
2017-07-11T10:41:02.389Z,66.20
2017-07-11T10:43:03.770Z,66.11
2017-07-11T10:45:05.209Z,65.98
2017-07-11T10:47:06.640Z,66.85
2017-07-11T10:49:08.077Z,67.91
2017-07-11T10:51:09.512Z,68.26
2017-07-11T10:53:10.951Z,66.82
2017-07-11T10:55:12.381Z,65.69
2017-07-11T10:57:13.817Z,66.72
2017-07-11T10:59:15.255Z,66.78
2017-07-11T11:01:16.686Z,66.63
2017-07-11T11:03:18.120Z,65.66
2017-07-11T11:05:19.559Z,66.94
2017-07-11T11:07:21.020Z,66.94
2017-07-11T11:09:22.512Z,65.14
2017-07-11T11:11:23.998Z,64.27
2017-07-11T11:13:25.513Z,63.89
2017-07-11T11:15:26.980Z,62.34
2017-07-11T11:17:28.463Z,62.56
2017-07-11T11:19:30.007Z,61.40
2017-07-11T11:21:31.528Z,61.30
2017-07-11T11:23:33.055Z,61.15
2017-07-11T11:25:34.594Z,61.05
2017-07-11T11:27:36.093Z,61.53
2017-07-11T11:29:37.546Z,59.79
2017-07-11T11:31:39.010Z,58.82
2017-07-11T11:33:40.521Z,59.11
2017-07-11T11:35:42.010Z,58.27
2017-07-11T11:37:43.564Z,57.08
2017-07-11T11:39:45.091Z,58.56
2017-07-11T11:41:46.640Z,56.52
2017-07-11T11:43:48.085Z,54.49
2017-07-11T11:45:49.622Z,55.17
2017-07-11T11:47:51.125Z,55.15
2017-07-11T11:49:52.619Z,54.27
2017-07-11T11:51:54.130Z,53.33
2017-07-11T11:53:55.614Z,54.79
2017-07-11T11:55:57.152Z,55.17
2017-07-11T11:57:58.639Z,54.01
2017-07-11T12:00:00.144Z,54.88
2017-07-11T12:02:01.623Z,55.92
2017-07-11T12:04:03.158Z,55.82
2017-07-11T12:06:04.657Z,55.05
2017-07-11T12:08:06.144Z,55.15
2017-07-11T12:10:07.670Z,54.75
2017-07-11T12:12:09.122Z,54.47
2017-07-11T12:14:10.652Z,53.99
2017-07-11T12:16:12.157Z,53.69
2017-07-11T12:18:13.649Z,54.79
2017-07-11T12:20:15.159Z,53.43
2017-07-11T12:22:16.680Z,54.21
2017-07-11T12:24:18.215Z,52.82
2017-07-11T12:26:19.771Z,52.95
2017-07-11T12:28:21.263Z,51.78
2017-07-11T12:30:22.750Z,52.92
2017-07-11T12:32:24.235Z,52.73
2017-07-11T12:34:25.775Z,53.11
2017-07-11T12:36:27.275Z,51.18
2017-07-11T12:38:28.774Z,54.01
2017-07-11T12:40:30.326Z,52.17
2017-07-11T12:42:31.801Z,53.43
2017-07-11T12:44:33.266Z,54.11
2017-07-11T12:46:34.778Z,52.20
2017-07-11T12:48:36.273Z,50.94
2017-07-11T12:50:37.771Z,49.58
2017-07-11T12:52:39.301Z,50.84
2017-07-11T12:54:40.742Z,50.55
2017-07-11T12:56:42.247Z,50.72
2017-07-11T12:58:43.762Z,49.85
2017-07-11T13:00:45.316Z,51.86
2017-07-11T13:02:47.056Z,51.95
2017-07-11T13:04:48.737Z,51.47
2017-07-11T13:06:50.304Z,52.82
2017-07-11T13:08:51.803Z,51.28
2017-07-11T13:10:53.287Z,52.31
2017-07-11T13:12:54.774Z,52.31
2017-07-11T13:14:56.308Z,53.25
2017-07-11T13:16:57.876Z,54.13
2017-07-11T13:18:59.362Z,54.80
2017-07-11T13:21:00.963Z,55.26
2017-07-11T13:23:02.466Z,58.22
2017-07-11T13:25:03.894Z,61.74
2017-07-11T13:27:05.326Z,67.78
2017-07-11T13:29:06.787Z,69.19
2017-07-11T13:31:08.215Z,71.70
2017-07-11T13:33:09.710Z,72.91
2017-07-11T13:35:11.088Z,73.36
2017-07-11T13:37:12.525Z,75.54
2017-07-11T13:39:13.955Z,77.26
2017-07-11T13:41:15.386Z,77.36
2017-07-11T13:43:16.817Z,76.31
2017-07-11T13:45:18.436Z,77.08
2017-07-11T13:47:19.872Z,78.48
2017-07-11T13:49:21.301Z,78.42
2017-07-11T13:51:22.733Z,79.00
2017-07-11T13:53:24.166Z,76.59
2017-07-11T13:55:25.593Z,76.88
2017-07-11T13:57:27.022Z,77.40
2017-07-11T13:59:28.452Z,76.73
2017-07-11T14:01:29.879Z,77.31
2017-07-11T14:03:31.309Z,75.63
2017-07-11T14:05:32.779Z,76.92
2017-07-11T14:07:34.217Z,77.01
2017-07-11T14:09:35.643Z,77.98
2017-07-11T14:11:37.075Z,77.98
2017-07-11T14:13:38.506Z,77.31
2017-07-11T14:15:39.934Z,77.31
2017-07-11T14:17:41.364Z,75.86
2017-07-11T14:19:42.792Z,76.57
2017-07-11T14:21:44.222Z,75.80
2017-07-11T14:23:45.652Z,77.34
2017-07-11T14:25:47.083Z,77.63
2017-07-11T14:27:48.513Z,77.44
2017-07-11T14:29:49.941Z,77.88
2017-07-11T14:31:51.368Z,78.08
2017-07-11T14:33:52.793Z,78.65
2017-07-11T14:35:54.228Z,78.02
2017-07-11T14:37:55.657Z,78.11
2017-07-11T14:39:57.090Z,78.11
2017-07-11T14:41:58.511Z,78.59
2017-07-11T14:43:59.946Z,78.59
2017-07-11T14:46:01.378Z,76.57
2017-07-11T14:48:02.807Z,78.88
2017-07-11T14:50:04.244Z,79.36
2017-07-11T14:52:05.669Z,76.18
2017-07-11T14:54:07.098Z,74.93
2017-07-11T14:56:08.532Z,78.21
2017-07-11T14:58:09.962Z,79.41
2017-07-11T15:00:11.396Z,77.63
2017-07-11T15:02:12.834Z,77.09
2017-07-11T15:04:14.257Z,78.40
2017-07-11T15:06:15.693Z,76.96
2017-07-11T15:08:17.118Z,78.50
2017-07-11T15:10:18.554Z,79.50
2017-07-11T15:12:19.986Z,76.61
2017-07-11T15:14:21.419Z,76.51
2017-07-11T15:16:22.849Z,76.42
2017-07-11T15:18:24.282Z,79.21
2017-07-11T15:20:25.791Z,77.28
2017-07-11T15:22:27.172Z,74.01
2017-07-11T15:24:28.603Z,78.15
2017-07-11T15:26:30.034Z,76.36
2017-07-11T15:28:31.465Z,76.17
2017-07-11T15:30:32.895Z,74.24
2017-07-11T15:32:34.327Z,74.01
2017-07-11T15:34:35.757Z,77.28
2017-07-11T15:36:37.189Z,75.10
2017-07-11T15:38:38.622Z,75.10
2017-07-11T15:40:40.066Z,76.59
2017-07-11T15:42:41.494Z,76.30
2017-07-11T15:44:42.930Z,69.35
2017-07-11T15:46:44.357Z,70.51
2017-07-11T15:48:45.787Z,72.54
2017-07-11T15:50:47.224Z,71.58
2017-07-11T15:52:48.655Z,73.11
2017-07-11T15:54:50.088Z,71.77
2017-07-11T15:56:51.516Z,70.61
2017-07-11T15:58:52.964Z,71.58
2017-07-11T16:00:54.396Z,70.61
2017-07-11T16:02:55.895Z,71.38
2017-07-11T16:04:57.402Z,73.15
2017-07-11T16:06:58.882Z,69.68
2017-07-11T16:09:00.383Z,70.80
2017-07-11T16:11:01.862Z,68.87
2017-07-11T16:13:03.343Z,70.57
2017-07-11T16:15:04.797Z,72.02
2017-07-11T16:17:06.241Z,69.90
2017-07-11T16:19:07.673Z,71.44
2017-07-11T16:21:09.103Z,72.02
2017-07-11T16:23:10.537Z,71.25
2017-07-11T16:25:11.970Z,72.83
2017-07-11T16:27:13.403Z,72.34
2017-07-11T16:29:14.835Z,71.77
2017-07-11T16:31:16.265Z,69.07
2017-07-11T16:33:17.697Z,70.42
2017-07-11T16:35:19.125Z,70.03
2017-07-11T16:37:20.549Z,72.15
2017-07-11T16:39:21.992Z,72.63
2017-07-11T16:41:23.425Z,70.42
2017-07-11T16:43:24.870Z,70.22
2017-07-11T16:45:26.297Z,70.38
2017-07-11T16:47:27.734Z,69.32
2017-07-11T16:49:29.166Z,70.96
2017-07-11T16:51:30.596Z,71.44
2017-07-11T16:53:32.029Z,68.65
2017-07-11T16:55:33.453Z,70.00
2017-07-11T16:57:34.890Z,70.57
2017-07-11T16:59:36.328Z,71.44
2017-07-11T17:01:37.753Z,70.38
2017-07-11T17:03:39.189Z,73.08
2017-07-11T17:05:40.617Z,70.86
2017-07-11T17:07:42.035Z,73.85
2017-07-11T17:09:43.479Z,73.85
2017-07-11T17:11:44.911Z,73.47
2017-07-11T17:13:46.340Z,71.58
2017-07-11T17:15:47.778Z,71.73
2017-07-11T17:17:49.205Z,71.38
2017-07-11T17:19:50.641Z,71.09
2017-07-11T17:21:52.069Z,71.96
2017-07-11T17:23:53.503Z,74.27
2017-07-11T17:25:54.952Z,72.58
2017-07-11T17:27:56.384Z,69.45
2017-07-11T17:29:57.812Z,68.39
2017-07-11T17:31:59.250Z,69.35
2017-07-11T17:34:00.674Z,67.43
2017-07-11T17:36:02.107Z,67.23
2017-07-11T17:38:03.587Z,68.68
2017-07-11T17:40:05.039Z,66.17
2017-07-11T17:42:06.469Z,68.01
2017-07-11T17:44:07.898Z,65.69
2017-07-11T17:46:09.340Z,65.59
2017-07-11T17:48:10.782Z,67.14
2017-07-11T17:50:12.210Z,66.08
2017-07-11T17:52:13.646Z,66.24
2017-07-11T17:54:15.078Z,67.33
2017-07-11T17:56:16.508Z,68.16
2017-07-11T17:58:17.952Z,69.42
2017-07-11T18:00:19.384Z,69.32
2017-07-11T18:02:20.871Z,67.97
2017-07-11T18:04:22.242Z,68.84
2017-07-11T18:06:23.680Z,69.23
2017-07-11T18:08:25.112Z,69.61
2017-07-11T18:10:26.555Z,67.81
2017-07-11T18:12:28.005Z,68.65
2017-07-11T18:14:29.439Z,68.84
2017-07-11T18:16:30.942Z,68.45
2017-07-11T18:18:32.435Z,69.03
2017-07-11T18:20:33.993Z,68.74
2017-07-11T18:22:35.418Z,68.65
2017-07-11T18:24:36.872Z,68.84
2017-07-11T18:26:38.368Z,69.80
2017-07-11T18:28:39.940Z,69.61
2017-07-11T18:30:41.492Z,72.31
2017-07-11T18:32:43.009Z,71.48
2017-07-11T18:34:44.518Z,69.45
2017-07-11T18:36:45.997Z,68.49
2017-07-11T18:38:47.482Z,68.68
2017-07-11T18:40:49.001Z,69.55
2017-07-11T18:42:50.485Z,68.68
2017-07-11T18:44:51.989Z,70.28
2017-07-11T18:46:53.511Z,69.71
2017-07-11T18:48:54.982Z,71.15
2017-07-11T18:50:56.477Z,70.28
2017-07-11T18:52:57.990Z,69.80
2017-07-11T18:54:59.524Z,70.48
2017-07-11T18:57:01.296Z,69.23
2017-07-11T18:59:03.061Z,69.80
2017-07-11T19:01:04.905Z,70.48
2017-07-11T19:03:06.653Z,69.13
2017-07-11T19:05:08.101Z,69.51
2017-07-11T19:07:09.626Z,69.51
2017-07-11T19:09:11.120Z,69.51
2017-07-11T19:11:12.603Z,69.51
2017-07-11T19:13:14.286Z,70.09
2017-07-11T19:15:15.988Z,70.09
2017-07-11T19:17:17.924Z,69.32
2017-07-11T19:19:19.670Z,69.90
2017-07-11T19:21:21.473Z,70.48
2017-07-11T19:23:23.002Z,72.02
2017-07-11T19:25:24.470Z,72.41
2017-07-11T19:27:25.979Z,71.34
2017-07-11T19:29:27.486Z,71.64
2017-07-11T19:31:28.966Z,70.00
2017-07-11T19:33:30.502Z,68.16
2017-07-11T19:35:32.006Z,68.74
2017-07-11T19:37:33.497Z,69.23
2017-07-11T19:39:35.035Z,71.34
2017-07-11T19:41:36.487Z,71.15
2017-07-11T19:43:37.979Z,70.57
2017-07-11T19:45:39.510Z,70.09
2017-07-11T19:47:41.190Z,70.06
2017-07-11T19:49:43.016Z,70.92
2017-07-11T19:51:44.645Z,70.06
2017-07-11T19:53:46.157Z,69.96
2017-07-11T19:55:47.684Z,69.96
2017-07-11T19:57:49.170Z,71.22
2017-07-11T19:59:50.697Z,70.73
2017-07-11T20:01:52.199Z,69.96
2017-07-11T20:03:53.685Z,71.22
2017-07-11T20:05:55.531Z,71.70
2017-07-11T20:07:57.351Z,71.12
2017-07-11T20:09:58.845Z,71.89
2017-07-11T20:12:00.368Z,71.22
2017-07-11T20:14:01.872Z,70.15
2017-07-11T20:16:03.363Z,70.44
2017-07-11T20:18:04.838Z,70.06
2017-07-11T20:20:06.280Z,70.73
2017-07-11T20:22:07.697Z,71.12
2017-07-11T20:24:09.151Z,71.02
2017-07-11T20:26:10.880Z,71.41
2017-07-11T20:28:12.369Z,71.22
2017-07-11T20:30:13.882Z,70.83
2017-07-11T20:32:15.364Z,71.22
2017-07-11T20:34:16.798Z,71.02
2017-07-11T20:36:18.232Z,71.02
2017-07-11T20:38:19.659Z,71.50
2017-07-11T20:40:21.090Z,70.64
2017-07-11T20:42:22.521Z,71.60
2017-07-11T20:44:23.947Z,71.70
2017-07-11T20:46:25.377Z,71.70
2017-07-11T20:48:26.803Z,71.89
2017-07-11T20:50:28.232Z,72.18
2017-07-11T20:52:29.707Z,71.12
2017-07-11T20:54:31.168Z,71.56
2017-07-11T20:56:32.647Z,71.95
2017-07-11T20:58:34.099Z,72.18
2017-07-11T21:00:35.527Z,72.43
2017-07-11T21:02:36.978Z,72.14
2017-07-11T21:04:38.405Z,71.85
2017-07-11T21:06:39.832Z,71.47
2017-07-11T21:08:41.260Z,72.14
2017-07-11T21:10:42.685Z,72.72
2017-07-11T21:12:44.157Z,71.47
2017-07-11T21:14:45.537Z,71.85
2017-07-11T21:16:46.972Z,72.63
2017-07-11T21:18:48.455Z,71.76
2017-07-11T21:20:49.937Z,72.14
2017-07-11T21:22:51.364Z,71.66
2017-07-11T21:24:52.823Z,72.43
2017-07-11T21:26:54.222Z,72.14
2017-07-11T21:28:55.650Z,72.14
2017-07-11T21:30:57.077Z,72.33
2017-07-11T21:32:58.500Z,72.05
2017-07-11T21:34:59.932Z,72.53
2017-07-11T21:37:01.355Z,72.33
2017-07-11T21:39:02.784Z,72.33
2017-07-11T21:41:04.209Z,72.24
2017-07-11T21:43:05.633Z,72.53
2017-07-11T21:45:07.063Z,72.81
2017-07-11T21:47:08.488Z,73.88
2017-07-11T21:49:09.936Z,72.33
2017-07-11T21:51:11.377Z,72.33
2017-07-11T21:53:12.802Z,72.14
2017-07-11T21:55:14.229Z,72.72
2017-07-11T21:57:15.655Z,72.91
2017-07-11T21:59:17.085Z,72.43
2017-07-11T22:01:18.515Z,73.10
2017-07-11T22:03:19.955Z,72.81
2017-07-11T22:05:21.381Z,72.24
2017-07-11T22:07:22.810Z,72.63
2017-07-11T22:09:24.231Z,73.10
2017-07-11T22:11:25.661Z,72.33
2017-07-11T22:13:27.092Z,71.95
2017-07-11T22:15:28.520Z,73.01
2017-07-11T22:17:29.935Z,74.07
2017-07-11T22:19:31.365Z,74.16
2017-07-11T22:21:32.793Z,74.45
2017-07-11T22:23:34.233Z,75.51
2017-07-11T22:25:35.658Z,75.51
2017-07-11T22:27:37.082Z,76.38
2017-07-11T22:29:38.511Z,76.57
2017-07-11T22:31:39.945Z,77.11
2017-07-11T22:33:41.372Z,76.48
2017-07-11T22:35:42.797Z,76.57
2017-07-11T22:37:44.225Z,77.31
2017-07-11T22:39:45.651Z,77.98
2017-07-11T22:41:47.077Z,78.46
2017-07-11T22:43:48.504Z,79.03
2017-07-11T22:45:49.951Z,78.27
2017-07-11T22:47:51.417Z,78.94
2017-07-11T22:49:53.256Z,79.52
2017-07-11T22:51:55.025Z,79.52
2017-07-11T22:53:56.518Z,79.43
2017-07-11T22:55:57.948Z,79.81
2017-07-11T22:57:59.374Z,79.33
2017-07-11T23:00:00.799Z,79.52
2017-07-11T23:02:02.229Z,79.23
2017-07-11T23:04:03.636Z,79.71
2017-07-11T23:06:05.110Z,79.81
2017-07-11T23:08:06.556Z,79.23
2017-07-11T23:10:08.022Z,79.81
2017-07-11T23:12:09.468Z,79.43
2017-07-11T23:14:10.934Z,79.03
2017-07-11T23:16:12.446Z,79.61
2017-07-11T23:18:13.924Z,80.10
2017-07-11T23:20:15.364Z,79.61
2017-07-11T23:22:16.878Z,80.48
2017-07-11T23:24:18.357Z,79.81
2017-07-11T23:26:19.836Z,80.19
2017-07-11T23:28:21.339Z,80.58
2017-07-11T23:30:22.832Z,79.81
2017-07-11T23:32:24.511Z,78.94
2017-07-11T23:34:26.000Z,79.81
2017-07-11T23:36:27.527Z,80.48
2017-07-11T23:38:29.018Z,79.81
2017-07-11T23:40:30.471Z,80.19
2017-07-11T23:42:31.903Z,79.90
2017-07-11T23:44:33.324Z,80.10
2017-07-11T23:46:34.744Z,80.58
2017-07-11T23:48:36.176Z,79.43
2017-07-11T23:50:37.598Z,79.52
2017-07-11T23:52:39.026Z,79.71
2017-07-11T23:54:40.451Z,80.19
2017-07-11T23:56:41.877Z,79.71
2017-07-11T23:58:43.301Z,80.15
